Aviation Digital Data Service (ADDS)

Output produced by METARs form (1257 UTC 21 February 2018)
found at http://www.aviationweather.gov/adds/metars/
 
RCTP 211237Z 04019G29KT 9000 -RA SCT004 BKN006 BKN012 14/13 Q1017 NOSIG RMK A3005
TAF RCTP 201100Z 2012/2118 02012KT 3200 BR SCT002 BKN004 BKN009 
     TEMPO 2012/2017 35007KT 1800 BR SCT001 BKN002 BKN005 
     TEMPO 2017/2021 34008KT 0600 FG SCT001 BKN002 OVC004 
     TEMPO 2021/2101 5000 RA SCT004 BKN007 BKN015 
     BECMG 2101/2103 05015KT 9000 FEW006 BKN011 BKN025 
     TEMPO 2105/2111 03020G30KT FEW010 BKN024
       
RCMQ 211230Z 01011KT 7000 FEW006 SCT016 BKN050 15/13 Q1014 NOSIG RMK A2997
RCKH 211230Z 35006KT 320V030 9000 FEW016 SCT045 BKN060 22/16 Q1014 NOSIG RMK A2996
TAF RCKH 201100Z 2012/2118 34005KT 8000 FEW020 BKN035 
     TEMPO 2020/2101 4000 BR FEW010 BKN020 
     BECMG 2100/2102 33010KT 
     TEMPO 2103/2109 27008KT 
     BECMG 2111/2113 35005KT
       
RCSS 211230Z 10012KT 9999 FEW007 BKN025 BKN035 16/14 Q1018 NOSIG RMK A3006
RCNN 211230Z 01006KT 9999 FEW012 BKN060 18/14 Q1014 RMK A2996